sensor_id;sensor_type;location;lat;lon;timestamp;P1;durP1;ratioP1;P2;durP2;ratioP2
5393;SDS011;2720;52.396;10.064;2022-08-21T00:01:51;3.47;;;2.03;;
5393;SDS011;2720;52.396;10.064;2022-08-21T00:04:19;12.90;;;2.53;;
5393;SDS011;2720;52.396;10.064;2022-08-21T00:06:46;7.30;;;2.13;;
5393;SDS011;2720;52.396;10.064;2022-08-21T00:09:13;3.87;;;2.13;;
5393;SDS011;2720;52.396;10.064;2022-08-21T00:11:41;6.40;;;2.53;;
5393;SDS011;2720;52.396;10.064;2022-08-21T00:14:13;4.57;;;2.43;;
5393;SDS011;2720;52.396;10.064;2022-08-21T00:16:40;10.00;;;4.90;;
5393;SDS011;2720;52.396;10.064;2022-08-21T00:19:08;9.70;;;3.37;;
5393;SDS011;2720;52.396;10.064;2022-08-21T00:21:35;16.97;;;4.90;;
5393;SDS011;2720;52.396;10.064;2022-08-21T00:24:02;7.10;;;3.23;;
5393;SDS011;2720;52.396;10.064;2022-08-21T00:26:29;6.10;;;2.87;;
5393;SDS011;2720;52.396;10.064;2022-08-21T00:28:58;10.97;;;3.50;;
5393;SDS011;2720;52.396;10.064;2022-08-21T00:31:25;8.00;;;3.07;;
5393;SDS011;2720;52.396;10.064;2022-08-21T00:33:52;4.20;;;2.80;;
5393;SDS011;2720;52.396;10.064;2022-08-21T00:36:19;13.90;;;4.37;;
5393;SDS011;2720;52.396;10.064;2022-08-21T00:38:46;3.47;;;2.47;;
5393;SDS011;2720;52.396;10.064;2022-08-21T00:41:13;7.63;;;3.30;;
5393;SDS011;2720;52.396;10.064;2022-08-21T00:43:40;9.80;;;3.23;;
5393;SDS011;2720;52.396;10.064;2022-08-21T00:46:08;3.50;;;2.90;;
5393;SDS011;2720;52.396;10.064;2022-08-21T00:48:35;10.73;;;3.50;;
5393;SDS011;2720;52.396;10.064;2022-08-21T00:51:03;5.40;;;2.97;;
5393;SDS011;2720;52.396;10.064;2022-08-21T00:53:32;3.63;;;3.23;;
5393;SDS011;2720;52.396;10.064;2022-08-21T00:56:01;5.20;;;3.50;;
5393;SDS011;2720;52.396;10.064;2022-08-21T00:58:30;7.50;;;3.40;;
5393;SDS011;2720;52.396;10.064;2022-08-21T01:01:01;9.60;;;3.00;;
5393;SDS011;2720;52.396;10.064;2022-08-21T01:03:31;5.50;;;2.50;;
5393;SDS011;2720;52.396;10.064;2022-08-21T01:06:00;5.30;;;2.90;;
5393;SDS011;2720;52.396;10.064;2022-08-21T01:08:28;3.80;;;2.40;;
5393;SDS011;2720;52.396;10.064;2022-08-21T01:10:56;6.73;;;2.10;;
5393;SDS011;2720;52.396;10.064;2022-08-21T01:13:23;4.77;;;2.53;;
5393;SDS011;2720;52.396;10.064;2022-08-21T01:15:51;3.37;;;1.97;;
5393;SDS011;2720;52.396;10.064;2022-08-21T01:18:22;3.07;;;2.10;;
5393;SDS011;2720;52.396;10.064;2022-08-21T01:21:00;5.90;;;2.77;;
5393;SDS011;2720;52.396;10.064;2022-08-21T01:23:33;8.60;;;2.33;;
5393;SDS011;2720;52.396;10.064;2022-08-21T01:26:01;4.33;;;2.00;;
5393;SDS011;2720;52.396;10.064;2022-08-21T01:28:30;6.13;;;2.20;;
5393;SDS011;2720;52.396;10.064;2022-08-21T01:31:00;4.67;;;2.87;;
5393;SDS011;2720;52.396;10.064;2022-08-21T01:33:28;12.93;;;2.87;;
5393;SDS011;2720;52.396;10.064;2022-08-21T01:35:55;5.50;;;2.37;;
5393;SDS011;2720;52.396;10.064;2022-08-21T01:38:24;3.80;;;2.27;;
5393;SDS011;2720;52.396;10.064;2022-08-21T01:40:51;6.00;;;2.77;;
5393;SDS011;2720;52.396;10.064;2022-08-21T01:43:18;5.47;;;2.50;;
5393;SDS011;2720;52.396;10.064;2022-08-21T01:45:45;4.50;;;2.60;;
5393;SDS011;2720;52.396;10.064;2022-08-21T01:48:12;6.93;;;2.47;;
5393;SDS011;2720;52.396;10.064;2022-08-21T01:50:39;5.53;;;3.03;;
5393;SDS011;2720;52.396;10.064;2022-08-21T01:53:06;3.53;;;2.83;;
5393;SDS011;2720;52.396;10.064;2022-08-21T01:55:35;4.10;;;2.53;;
5393;SDS011;2720;52.396;10.064;2022-08-21T01:58:02;4.77;;;2.27;;
5393;SDS011;2720;52.396;10.064;2022-08-21T02:00:29;6.53;;;2.73;;
5393;SDS011;2720;52.396;10.064;2022-08-21T02:02:56;6.00;;;2.90;;
5393;SDS011;2720;52.396;10.064;2022-08-21T02:05:23;14.87;;;3.43;;
5393;SDS011;2720;52.396;10.064;2022-08-21T02:07:51;8.40;;;3.40;;
5393;SDS011;2720;52.396;10.064;2022-08-21T02:10:20;3.50;;;2.53;;
5393;SDS011;2720;52.396;10.064;2022-08-21T02:12:50;12.07;;;3.40;;
5393;SDS011;2720;52.396;10.064;2022-08-21T02:15:17;3.77;;;2.63;;
5393;SDS011;2720;52.396;10.064;2022-08-21T02:17:46;5.27;;;3.73;;
5393;SDS011;2720;52.396;10.064;2022-08-21T02:20:16;10.53;;;3.10;;
5393;SDS011;2720;52.396;10.064;2022-08-21T02:22:44;3.10;;;2.53;;
5393;SDS011;2720;52.396;10.064;2022-08-21T02:25:11;5.03;;;2.93;;
5393;SDS011;2720;52.396;10.064;2022-08-21T02:27:39;7.03;;;2.97;;
5393;SDS011;2720;52.396;10.064;2022-08-21T02:30:09;5.10;;;3.47;;
5393;SDS011;2720;52.396;10.064;2022-08-21T02:32:38;13.10;;;3.50;;
5393;SDS011;2720;52.396;10.064;2022-08-21T02:35:06;7.23;;;3.50;;
5393;SDS011;2720;52.396;10.064;2022-08-21T02:37:34;10.70;;;4.53;;
5393;SDS011;2720;52.396;10.064;2022-08-21T02:40:08;6.03;;;3.23;;
5393;SDS011;2720;52.396;10.064;2022-08-21T02:42:36;4.93;;;3.50;;
5393;SDS011;2720;52.396;10.064;2022-08-21T02:45:03;9.37;;;3.40;;
5393;SDS011;2720;52.396;10.064;2022-08-21T02:47:32;7.80;;;3.13;;
5393;SDS011;2720;52.396;10.064;2022-08-21T02:50:00;5.57;;;3.00;;
5393;SDS011;2720;52.396;10.064;2022-08-21T02:52:27;3.80;;;3.30;;
5393;SDS011;2720;52.396;10.064;2022-08-21T02:54:54;11.73;;;3.83;;
5393;SDS011;2720;52.396;10.064;2022-08-21T02:57:21;6.60;;;3.83;;
5393;SDS011;2720;52.396;10.064;2022-08-21T02:59:48;7.80;;;3.97;;
5393;SDS011;2720;52.396;10.064;2022-08-21T03:02:15;4.37;;;3.03;;
5393;SDS011;2720;52.396;10.064;2022-08-21T03:04:43;5.77;;;3.00;;
5393;SDS011;2720;52.396;10.064;2022-08-21T03:07:10;10.20;;;3.30;;
5393;SDS011;2720;52.396;10.064;2022-08-21T03:09:37;9.93;;;3.90;;
5393;SDS011;2720;52.396;10.064;2022-08-21T03:12:04;6.53;;;3.60;;
5393;SDS011;2720;52.396;10.064;2022-08-21T03:14:32;9.40;;;3.80;;
5393;SDS011;2720;52.396;10.064;2022-08-21T03:16:59;6.73;;;4.23;;
5393;SDS011;2720;52.396;10.064;2022-08-21T03:19:26;12.37;;;4.33;;
5393;SDS011;2720;52.396;10.064;2022-08-21T03:21:54;7.03;;;3.00;;
5393;SDS011;2720;52.396;10.064;2022-08-21T03:24:21;3.73;;;3.43;;
5393;SDS011;2720;52.396;10.064;2022-08-21T03:26:48;6.43;;;3.77;;
5393;SDS011;2720;52.396;10.064;2022-08-21T03:29:15;7.47;;;3.20;;
5393;SDS011;2720;52.396;10.064;2022-08-21T03:31:42;5.40;;;3.00;;
5393;SDS011;2720;52.396;10.064;2022-08-21T03:34:09;5.93;;;3.20;;
5393;SDS011;2720;52.396;10.064;2022-08-21T03:36:36;4.70;;;3.10;;
5393;SDS011;2720;52.396;10.064;2022-08-21T03:39:04;7.03;;;3.90;;
5393;SDS011;2720;52.396;10.064;2022-08-21T03:41:31;9.97;;;3.40;;
5393;SDS011;2720;52.396;10.064;2022-08-21T03:43:58;7.37;;;2.40;;
5393;SDS011;2720;52.396;10.064;2022-08-21T03:46:25;8.30;;;3.90;;
5393;SDS011;2720;52.396;10.064;2022-08-21T03:48:52;6.63;;;3.37;;
5393;SDS011;2720;52.396;10.064;2022-08-21T03:51:20;7.27;;;3.90;;
5393;SDS011;2720;52.396;10.064;2022-08-21T03:53:47;9.63;;;3.80;;
5393;SDS011;2720;52.396;10.064;2022-08-21T03:56:15;8.17;;;3.97;;
5393;SDS011;2720;52.396;10.064;2022-08-21T03:58:42;5.77;;;3.43;;
5393;SDS011;2720;52.396;10.064;2022-08-21T04:01:10;10.80;;;4.03;;
5393;SDS011;2720;52.396;10.064;2022-08-21T04:03:37;4.63;;;3.67;;
5393;SDS011;2720;52.396;10.064;2022-08-21T04:06:05;9.70;;;4.30;;
5393;SDS011;2720;52.396;10.064;2022-08-21T04:08:33;5.73;;;4.40;;
5393;SDS011;2720;52.396;10.064;2022-08-21T04:11:00;7.37;;;3.60;;
5393;SDS011;2720;52.396;10.064;2022-08-21T04:13:29;14.67;;;5.47;;
5393;SDS011;2720;52.396;10.064;2022-08-21T04:15:56;6.97;;;4.27;;
5393;SDS011;2720;52.396;10.064;2022-08-21T04:18:24;6.77;;;4.00;;
5393;SDS011;2720;52.396;10.064;2022-08-21T04:20:51;9.83;;;3.90;;
5393;SDS011;2720;52.396;10.064;2022-08-21T04:23:20;17.40;;;4.90;;
5393;SDS011;2720;52.396;10.064;2022-08-21T04:25:49;8.10;;;3.37;;
5393;SDS011;2720;52.396;10.064;2022-08-21T04:28:16;10.03;;;3.53;;
5393;SDS011;2720;52.396;10.064;2022-08-21T04:30:45;8.30;;;4.83;;
5393;SDS011;2720;52.396;10.064;2022-08-21T04:33:12;7.00;;;3.20;;
5393;SDS011;2720;52.396;10.064;2022-08-21T04:35:39;11.13;;;3.50;;
5393;SDS011;2720;52.396;10.064;2022-08-21T04:38:07;3.43;;;2.87;;
5393;SDS011;2720;52.396;10.064;2022-08-21T04:40:34;7.57;;;3.17;;
5393;SDS011;2720;52.396;10.064;2022-08-21T04:43:02;2.90;;;2.70;;
5393;SDS011;2720;52.396;10.064;2022-08-21T04:45:31;6.40;;;3.30;;
5393;SDS011;2720;52.396;10.064;2022-08-21T04:48:01;7.67;;;3.40;;
5393;SDS011;2720;52.396;10.064;2022-08-21T04:50:43;12.80;;;3.43;;
5393;SDS011;2720;52.396;10.064;2022-08-21T04:53:15;5.90;;;2.73;;
5393;SDS011;2720;52.396;10.064;2022-08-21T04:55:46;6.20;;;3.30;;
5393;SDS011;2720;52.396;10.064;2022-08-21T04:58:15;5.10;;;2.80;;
5393;SDS011;2720;52.396;10.064;2022-08-21T05:00:44;8.53;;;3.40;;
5393;SDS011;2720;52.396;10.064;2022-08-21T05:03:14;6.67;;;2.97;;
5393;SDS011;2720;52.396;10.064;2022-08-21T05:05:46;8.53;;;3.23;;
5393;SDS011;2720;52.396;10.064;2022-08-21T05:08:14;7.83;;;3.20;;
5393;SDS011;2720;52.396;10.064;2022-08-21T05:10:44;3.37;;;3.07;;
5393;SDS011;2720;52.396;10.064;2022-08-21T05:13:11;4.47;;;3.00;;
5393;SDS011;2720;52.396;10.064;2022-08-21T05:15:39;9.20;;;3.50;;
5393;SDS011;2720;52.396;10.064;2022-08-21T05:18:06;13.40;;;3.57;;
5393;SDS011;2720;52.396;10.064;2022-08-21T05:20:35;8.37;;;3.63;;
5393;SDS011;2720;52.396;10.064;2022-08-21T05:23:06;4.93;;;2.53;;
5393;SDS011;2720;52.396;10.064;2022-08-21T05:25:34;3.20;;;2.60;;
5393;SDS011;2720;52.396;10.064;2022-08-21T05:28:01;6.50;;;2.80;;
5393;SDS011;2720;52.396;10.064;2022-08-21T05:30:29;8.63;;;3.03;;
5393;SDS011;2720;52.396;10.064;2022-08-21T05:32:57;6.27;;;3.10;;
5393;SDS011;2720;52.396;10.064;2022-08-21T05:35:25;8.43;;;4.07;;
5393;SDS011;2720;52.396;10.064;2022-08-21T05:37:54;6.30;;;3.27;;
5393;SDS011;2720;52.396;10.064;2022-08-21T05:40:21;3.97;;;2.63;;
5393;SDS011;2720;52.396;10.064;2022-08-21T05:42:49;2.90;;;2.67;;
5393;SDS011;2720;52.396;10.064;2022-08-21T05:45:16;4.40;;;3.27;;
5393;SDS011;2720;52.396;10.064;2022-08-21T05:47:43;14.60;;;3.53;;
5393;SDS011;2720;52.396;10.064;2022-08-21T05:50:10;9.87;;;2.70;;
5393;SDS011;2720;52.396;10.064;2022-08-21T05:52:37;9.30;;;2.60;;
5393;SDS011;2720;52.396;10.064;2022-08-21T05:55:06;4.27;;;2.77;;
5393;SDS011;2720;52.396;10.064;2022-08-21T05:57:34;7.43;;;3.37;;
5393;SDS011;2720;52.396;10.064;2022-08-21T06:00:01;9.80;;;3.03;;
5393;SDS011;2720;52.396;10.064;2022-08-21T06:02:30;6.30;;;3.00;;
5393;SDS011;2720;52.396;10.064;2022-08-21T06:04:57;8.33;;;3.20;;
5393;SDS011;2720;52.396;10.064;2022-08-21T06:07:24;6.10;;;3.33;;
5393;SDS011;2720;52.396;10.064;2022-08-21T06:09:51;11.93;;;4.70;;
5393;SDS011;2720;52.396;10.064;2022-08-21T06:12:19;5.60;;;3.20;;
5393;SDS011;2720;52.396;10.064;2022-08-21T06:14:46;6.13;;;4.10;;
5393;SDS011;2720;52.396;10.064;2022-08-21T06:17:15;6.77;;;3.07;;
5393;SDS011;2720;52.396;10.064;2022-08-21T06:19:42;10.27;;;4.00;;
5393;SDS011;2720;52.396;10.064;2022-08-21T06:22:09;7.67;;;3.17;;
5393;SDS011;2720;52.396;10.064;2022-08-21T06:24:36;5.90;;;3.57;;
5393;SDS011;2720;52.396;10.064;2022-08-21T06:27:04;10.00;;;3.30;;
5393;SDS011;2720;52.396;10.064;2022-08-21T06:29:34;8.53;;;3.20;;
5393;SDS011;2720;52.396;10.064;2022-08-21T06:32:02;10.27;;;3.53;;
5393;SDS011;2720;52.396;10.064;2022-08-21T06:34:29;13.10;;;3.40;;
5393;SDS011;2720;52.396;10.064;2022-08-21T06:36:56;11.70;;;3.63;;
5393;SDS011;2720;52.396;10.064;2022-08-21T06:39:23;9.33;;;2.63;;
5393;SDS011;2720;52.396;10.064;2022-08-21T06:41:51;7.23;;;2.87;;
5393;SDS011;2720;52.396;10.064;2022-08-21T06:44:18;8.57;;;2.83;;
5393;SDS011;2720;52.396;10.064;2022-08-21T06:46:46;11.73;;;3.47;;
5393;SDS011;2720;52.396;10.064;2022-08-21T06:49:13;10.40;;;3.33;;
5393;SDS011;2720;52.396;10.064;2022-08-21T06:51:40;10.73;;;2.80;;
5393;SDS011;2720;52.396;10.064;2022-08-21T06:54:07;4.40;;;3.37;;
5393;SDS011;2720;52.396;10.064;2022-08-21T06:56:37;8.50;;;2.60;;
5393;SDS011;2720;52.396;10.064;2022-08-21T06:59:04;6.70;;;3.00;;
5393;SDS011;2720;52.396;10.064;2022-08-21T07:01:32;6.70;;;3.23;;
5393;SDS011;2720;52.396;10.064;2022-08-21T07:04:00;6.83;;;2.93;;
5393;SDS011;2720;52.396;10.064;2022-08-21T07:06:27;7.03;;;3.73;;
5393;SDS011;2720;52.396;10.064;2022-08-21T07:08:54;12.13;;;3.53;;
5393;SDS011;2720;52.396;10.064;2022-08-21T07:11:22;16.00;;;3.37;;
5393;SDS011;2720;52.396;10.064;2022-08-21T07:13:50;11.27;;;2.77;;
5393;SDS011;2720;52.396;10.064;2022-08-21T07:16:19;9.30;;;2.83;;
5393;SDS011;2720;52.396;10.064;2022-08-21T07:18:46;5.40;;;3.27;;
5393;SDS011;2720;52.396;10.064;2022-08-21T07:21:15;6.47;;;3.50;;
5393;SDS011;2720;52.396;10.064;2022-08-21T07:23:44;7.33;;;2.93;;
5393;SDS011;2720;52.396;10.064;2022-08-21T07:26:12;6.40;;;3.10;;
5393;SDS011;2720;52.396;10.064;2022-08-21T07:28:40;4.90;;;3.20;;
5393;SDS011;2720;52.396;10.064;2022-08-21T07:31:08;10.30;;;2.53;;
5393;SDS011;2720;52.396;10.064;2022-08-21T07:33:38;6.60;;;2.90;;
5393;SDS011;2720;52.396;10.064;2022-08-21T07:36:06;8.20;;;3.50;;
5393;SDS011;2720;52.396;10.064;2022-08-21T07:38:35;6.20;;;3.00;;
5393;SDS011;2720;52.396;10.064;2022-08-21T07:41:02;6.00;;;3.30;;
5393;SDS011;2720;52.396;10.064;2022-08-21T07:43:37;6.43;;;2.43;;
5393;SDS011;2720;52.396;10.064;2022-08-21T07:46:04;5.13;;;2.40;;
5393;SDS011;2720;52.396;10.064;2022-08-21T07:48:31;8.00;;;2.60;;
5393;SDS011;2720;52.396;10.064;2022-08-21T07:50:58;11.40;;;2.70;;
5393;SDS011;2720;52.396;10.064;2022-08-21T07:53:31;5.60;;;2.50;;
5393;SDS011;2720;52.396;10.064;2022-08-21T07:55:59;5.00;;;2.87;;
5393;SDS011;2720;52.396;10.064;2022-08-21T07:58:27;3.93;;;2.10;;
5393;SDS011;2720;52.396;10.064;2022-08-21T08:00:54;5.80;;;2.73;;
5393;SDS011;2720;52.396;10.064;2022-08-21T08:03:21;5.97;;;3.03;;
5393;SDS011;2720;52.396;10.064;2022-08-21T08:05:48;9.80;;;3.20;;
5393;SDS011;2720;52.396;10.064;2022-08-21T08:08:15;5.17;;;2.03;;
5393;SDS011;2720;52.396;10.064;2022-08-21T08:10:42;6.20;;;2.13;;
5393;SDS011;2720;52.396;10.064;2022-08-21T08:13:11;5.40;;;2.53;;
5393;SDS011;2720;52.396;10.064;2022-08-21T08:15:38;9.43;;;2.40;;
5393;SDS011;2720;52.396;10.064;2022-08-21T08:18:05;4.17;;;2.27;;
5393;SDS011;2720;52.396;10.064;2022-08-21T08:20:32;8.88;;;2.10;;
5393;SDS011;2720;52.396;10.064;2022-08-21T08:22:59;5.90;;;2.40;;
5393;SDS011;2720;52.396;10.064;2022-08-21T08:25:26;7.37;;;2.47;;
5393;SDS011;2720;52.396;10.064;2022-08-21T08:27:54;5.73;;;2.40;;
5393;SDS011;2720;52.396;10.064;2022-08-21T08:30:22;5.30;;;1.87;;
5393;SDS011;2720;52.396;10.064;2022-08-21T08:32:49;9.90;;;3.10;;
5393;SDS011;2720;52.396;10.064;2022-08-21T08:35:16;5.20;;;2.07;;
5393;SDS011;2720;52.396;10.064;2022-08-21T08:37:44;7.20;;;1.97;;
5393;SDS011;2720;52.396;10.064;2022-08-21T08:40:12;4.97;;;1.70;;
5393;SDS011;2720;52.396;10.064;2022-08-21T08:42:44;4.47;;;1.93;;
5393;SDS011;2720;52.396;10.064;2022-08-21T08:45:13;15.37;;;2.77;;
5393;SDS011;2720;52.396;10.064;2022-08-21T08:47:46;8.70;;;2.80;;
5393;SDS011;2720;52.396;10.064;2022-08-21T08:50:21;7.13;;;2.13;;
5393;SDS011;2720;52.396;10.064;2022-08-21T08:52:54;6.63;;;1.97;;
5393;SDS011;2720;52.396;10.064;2022-08-21T08:55:26;6.90;;;2.10;;
5393;SDS011;2720;52.396;10.064;2022-08-21T08:57:59;3.70;;;1.77;;
5393;SDS011;2720;52.396;10.064;2022-08-21T09:00:29;5.40;;;2.10;;
5393;SDS011;2720;52.396;10.064;2022-08-21T09:02:59;3.63;;;1.97;;
5393;SDS011;2720;52.396;10.064;2022-08-21T09:05:28;2.40;;;1.67;;
5393;SDS011;2720;52.396;10.064;2022-08-21T09:08:11;6.87;;;1.90;;
5393;SDS011;2720;52.396;10.064;2022-08-21T09:10:57;7.27;;;1.80;;
5393;SDS011;2720;52.396;10.064;2022-08-21T09:13:32;6.03;;;2.23;;
5393;SDS011;2720;52.396;10.064;2022-08-21T09:16:14;5.93;;;2.27;;
5393;SDS011;2720;52.396;10.064;2022-08-21T09:18:52;5.07;;;2.10;;
5393;SDS011;2720;52.396;10.064;2022-08-21T09:21:27;7.37;;;1.53;;
5393;SDS011;2720;52.396;10.064;2022-08-21T09:24:02;13.70;;;2.40;;
5393;SDS011;2720;52.396;10.064;2022-08-21T09:26:44;5.10;;;1.87;;
5393;SDS011;2720;52.396;10.064;2022-08-21T09:29:19;8.10;;;2.40;;
5393;SDS011;2720;52.396;10.064;2022-08-21T09:31:49;6.87;;;2.10;;
5393;SDS011;2720;52.396;10.064;2022-08-21T09:34:25;5.20;;;2.10;;
5393;SDS011;2720;52.396;10.064;2022-08-21T09:36:55;7.07;;;3.20;;
5393;SDS011;2720;52.396;10.064;2022-08-21T09:39:24;6.63;;;2.50;;
5393;SDS011;2720;52.396;10.064;2022-08-21T09:41:56;6.07;;;1.83;;
5393;SDS011;2720;52.396;10.064;2022-08-21T09:44:29;9.73;;;2.20;;
5393;SDS011;2720;52.396;10.064;2022-08-21T09:46:58;2.77;;;1.27;;
5393;SDS011;2720;52.396;10.064;2022-08-21T09:49:28;6.93;;;1.63;;
5393;SDS011;2720;52.396;10.064;2022-08-21T09:51:56;8.03;;;2.27;;
5393;SDS011;2720;52.396;10.064;2022-08-21T09:54:26;4.77;;;1.77;;
5393;SDS011;2720;52.396;10.064;2022-08-21T09:56:57;2.73;;;1.50;;
5393;SDS011;2720;52.396;10.064;2022-08-21T09:59:44;4.33;;;2.10;;
5393;SDS011;2720;52.396;10.064;2022-08-21T10:02:23;6.03;;;2.10;;
5393;SDS011;2720;52.396;10.064;2022-08-21T10:04:55;3.90;;;1.13;;
5393;SDS011;2720;52.396;10.064;2022-08-21T10:07:25;7.83;;;3.20;;
5393;SDS011;2720;52.396;10.064;2022-08-21T10:10:01;7.43;;;3.13;;
5393;SDS011;2720;52.396;10.064;2022-08-21T10:12:31;8.70;;;2.00;;
5393;SDS011;2720;52.396;10.064;2022-08-21T10:15:10;5.53;;;1.70;;
5393;SDS011;2720;52.396;10.064;2022-08-21T10:17:44;6.67;;;2.00;;
5393;SDS011;2720;52.396;10.064;2022-08-21T10:20:17;9.10;;;2.73;;
5393;SDS011;2720;52.396;10.064;2022-08-21T10:22:50;9.07;;;2.50;;
5393;SDS011;2720;52.396;10.064;2022-08-21T10:25:31;7.20;;;2.20;;
5393;SDS011;2720;52.396;10.064;2022-08-21T10:28:06;8.47;;;1.83;;
5393;SDS011;2720;52.396;10.064;2022-08-21T10:30:43;3.90;;;1.80;;
5393;SDS011;2720;52.396;10.064;2022-08-21T10:33:17;7.17;;;2.20;;
5393;SDS011;2720;52.396;10.064;2022-08-21T10:35:53;12.50;;;3.23;;
5393;SDS011;2720;52.396;10.064;2022-08-21T10:38:40;4.47;;;1.90;;
5393;SDS011;2720;52.396;10.064;2022-08-21T10:41:40;6.33;;;2.20;;
5393;SDS011;2720;52.396;10.064;2022-08-21T10:44:18;6.20;;;1.50;;
5393;SDS011;2720;52.396;10.064;2022-08-21T10:46:54;7.70;;;1.90;;
5393;SDS011;2720;52.396;10.064;2022-08-21T10:49:35;4.47;;;1.70;;
5393;SDS011;2720;52.396;10.064;2022-08-21T10:52:15;13.00;;;3.37;;
5393;SDS011;2720;52.396;10.064;2022-08-21T10:54:55;3.87;;;2.00;;
5393;SDS011;2720;52.396;10.064;2022-08-21T10:57:27;14.57;;;2.97;;
5393;SDS011;2720;52.396;10.064;2022-08-21T11:00:03;3.63;;;1.30;;
5393;SDS011;2720;52.396;10.064;2022-08-21T11:02:35;7.23;;;1.63;;
5393;SDS011;2720;52.396;10.064;2022-08-21T11:05:08;14.97;;;2.30;;
5393;SDS011;2720;52.396;10.064;2022-08-21T11:07:43;5.40;;;2.00;;
5393;SDS011;2720;52.396;10.064;2022-08-21T11:10:16;6.40;;;1.93;;
5393;SDS011;2720;52.396;10.064;2022-08-21T11:12:48;9.20;;;1.93;;
5393;SDS011;2720;52.396;10.064;2022-08-21T11:15:28;4.87;;;1.77;;
5393;SDS011;2720;52.396;10.064;2022-08-21T11:18:15;6.30;;;1.90;;
5393;SDS011;2720;52.396;10.064;2022-08-21T11:20:49;6.23;;;1.70;;
5393;SDS011;2720;52.396;10.064;2022-08-21T11:23:25;3.13;;;1.03;;
5393;SDS011;2720;52.396;10.064;2022-08-21T11:26:00;6.80;;;2.80;;
5393;SDS011;2720;52.396;10.064;2022-08-21T11:28:33;4.70;;;2.47;;
5393;SDS011;2720;52.396;10.064;2022-08-21T11:31:10;5.97;;;1.60;;
5393;SDS011;2720;52.396;10.064;2022-08-21T11:33:52;4.73;;;2.00;;
5393;SDS011;2720;52.396;10.064;2022-08-21T11:36:31;3.13;;;1.33;;
5393;SDS011;2720;52.396;10.064;2022-08-21T11:39:10;6.10;;;1.40;;
5393;SDS011;2720;52.396;10.064;2022-08-21T11:41:43;3.93;;;1.47;;
5393;SDS011;2720;52.396;10.064;2022-08-21T11:44:21;3.70;;;1.70;;
5393;SDS011;2720;52.396;10.064;2022-08-21T11:46:56;2.50;;;1.13;;
5393;SDS011;2720;52.396;10.064;2022-08-21T11:49:36;9.67;;;1.47;;
5393;SDS011;2720;52.396;10.064;2022-08-21T11:52:14;1.90;;;1.27;;
5393;SDS011;2720;52.396;10.064;2022-08-21T11:54:48;3.23;;;1.37;;
5393;SDS011;2720;52.396;10.064;2022-08-21T11:57:20;3.07;;;1.27;;
5393;SDS011;2720;52.396;10.064;2022-08-21T11:59:53;2.67;;;1.40;;
5393;SDS011;2720;52.396;10.064;2022-08-21T12:02:24;6.53;;;1.73;;
5393;SDS011;2720;52.396;10.064;2022-08-21T12:04:56;3.27;;;1.30;;
5393;SDS011;2720;52.396;10.064;2022-08-21T12:07:31;5.20;;;2.20;;
5393;SDS011;2720;52.396;10.064;2022-08-21T12:10:03;4.23;;;1.13;;
5393;SDS011;2720;52.396;10.064;2022-08-21T12:12:32;2.07;;;1.40;;
5393;SDS011;2720;52.396;10.064;2022-08-21T12:15:07;2.87;;;1.60;;
5393;SDS011;2720;52.396;10.064;2022-08-21T12:17:54;2.87;;;1.30;;
5393;SDS011;2720;52.396;10.064;2022-08-21T12:20:33;4.50;;;1.27;;
5393;SDS011;2720;52.396;10.064;2022-08-21T12:23:04;4.03;;;1.53;;
5393;SDS011;2720;52.396;10.064;2022-08-21T12:25:41;1.53;;;0.97;;
5393;SDS011;2720;52.396;10.064;2022-08-21T12:28:10;3.53;;;1.50;;
5393;SDS011;2720;52.396;10.064;2022-08-21T12:30:41;5.57;;;1.13;;
5393;SDS011;2720;52.396;10.064;2022-08-21T12:33:18;4.50;;;1.50;;
5393;SDS011;2720;52.396;10.064;2022-08-21T12:35:48;4.50;;;1.43;;
5393;SDS011;2720;52.396;10.064;2022-08-21T12:38:17;6.47;;;1.77;;
5393;SDS011;2720;52.396;10.064;2022-08-21T12:40:48;5.10;;;2.53;;
5393;SDS011;2720;52.396;10.064;2022-08-21T12:43:20;3.70;;;1.13;;
5393;SDS011;2720;52.396;10.064;2022-08-21T12:45:52;4.63;;;1.70;;
5393;SDS011;2720;52.396;10.064;2022-08-21T12:48:20;9.00;;;1.90;;
5393;SDS011;2720;52.396;10.064;2022-08-21T12:50:51;3.43;;;1.00;;
5393;SDS011;2720;52.396;10.064;2022-08-21T12:53:24;1.47;;;0.80;;
5393;SDS011;2720;52.396;10.064;2022-08-21T12:55:57;3.80;;;1.10;;
5393;SDS011;2720;52.396;10.064;2022-08-21T12:58:29;7.50;;;1.43;;
5393;SDS011;2720;52.396;10.064;2022-08-21T13:00:59;7.20;;;1.70;;
5393;SDS011;2720;52.396;10.064;2022-08-21T13:03:28;4.50;;;1.47;;
5393;SDS011;2720;52.396;10.064;2022-08-21T13:05:57;3.53;;;1.30;;
5393;SDS011;2720;52.396;10.064;2022-08-21T13:08:25;6.17;;;1.87;;
5393;SDS011;2720;52.396;10.064;2022-08-21T13:10:59;4.53;;;1.60;;
5393;SDS011;2720;52.396;10.064;2022-08-21T13:13:28;6.00;;;2.53;;
5393;SDS011;2720;52.396;10.064;2022-08-21T13:15:57;1.53;;;0.97;;
5393;SDS011;2720;52.396;10.064;2022-08-21T13:18:27;2.60;;;1.10;;
5393;SDS011;2720;52.396;10.064;2022-08-21T13:21:03;1.53;;;0.80;;
5393;SDS011;2720;52.396;10.064;2022-08-21T13:23:31;6.17;;;1.53;;
5393;SDS011;2720;52.396;10.064;2022-08-21T13:26:00;4.93;;;1.53;;
5393;SDS011;2720;52.396;10.064;2022-08-21T13:28:37;2.87;;;1.50;;
5393;SDS011;2720;52.396;10.064;2022-08-21T13:31:06;5.30;;;1.20;;
5393;SDS011;2720;52.396;10.064;2022-08-21T13:33:36;9.43;;;1.60;;
5393;SDS011;2720;52.396;10.064;2022-08-21T13:36:09;2.60;;;1.27;;
5393;SDS011;2720;52.396;10.064;2022-08-21T13:38:40;2.60;;;1.80;;
5393;SDS011;2720;52.396;10.064;2022-08-21T13:41:20;4.57;;;1.70;;
5393;SDS011;2720;52.396;10.064;2022-08-21T13:43:55;5.03;;;1.50;;
5393;SDS011;2720;52.396;10.064;2022-08-21T13:46:24;6.00;;;1.40;;
5393;SDS011;2720;52.396;10.064;2022-08-21T13:48:54;5.40;;;1.50;;
5393;SDS011;2720;52.396;10.064;2022-08-21T13:51:22;5.60;;;1.63;;
5393;SDS011;2720;52.396;10.064;2022-08-21T13:53:51;5.20;;;1.70;;
5393;SDS011;2720;52.396;10.064;2022-08-21T13:56:24;4.77;;;1.80;;
5393;SDS011;2720;52.396;10.064;2022-08-21T13:58:53;1.93;;;1.50;;
5393;SDS011;2720;52.396;10.064;2022-08-21T14:01:23;3.70;;;1.60;;
5393;SDS011;2720;52.396;10.064;2022-08-21T14:03:54;6.30;;;1.80;;
5393;SDS011;2720;52.396;10.064;2022-08-21T14:06:25;3.87;;;1.83;;
5393;SDS011;2720;52.396;10.064;2022-08-21T14:08:55;4.37;;;1.73;;
5393;SDS011;2720;52.396;10.064;2022-08-21T14:11:26;2.37;;;1.33;;
5393;SDS011;2720;52.396;10.064;2022-08-21T14:13:59;3.57;;;1.50;;
5393;SDS011;2720;52.396;10.064;2022-08-21T14:16:39;4.70;;;1.70;;
5393;SDS011;2720;52.396;10.064;2022-08-21T14:19:10;5.40;;;1.03;;
5393;SDS011;2720;52.396;10.064;2022-08-21T14:21:45;2.30;;;1.93;;
5393;SDS011;2720;52.396;10.064;2022-08-21T14:24:24;3.37;;;1.40;;
5393;SDS011;2720;52.396;10.064;2022-08-21T14:26:55;3.90;;;1.57;;
5393;SDS011;2720;52.396;10.064;2022-08-21T14:29:24;5.33;;;1.30;;
5393;SDS011;2720;52.396;10.064;2022-08-21T14:31:54;2.50;;;1.40;;
5393;SDS011;2720;52.396;10.064;2022-08-21T14:34:23;4.30;;;1.40;;
5393;SDS011;2720;52.396;10.064;2022-08-21T14:36:52;4.87;;;1.47;;
5393;SDS011;2720;52.396;10.064;2022-08-21T14:39:21;6.93;;;1.10;;
5393;SDS011;2720;52.396;10.064;2022-08-21T14:41:48;2.93;;;1.43;;
5393;SDS011;2720;52.396;10.064;2022-08-21T14:44:18;7.47;;;1.63;;
5393;SDS011;2720;52.396;10.064;2022-08-21T14:46:46;7.10;;;2.73;;
5393;SDS011;2720;52.396;10.064;2022-08-21T14:49:13;7.87;;;1.73;;
5393;SDS011;2720;52.396;10.064;2022-08-21T14:51:41;6.53;;;1.97;;
5393;SDS011;2720;52.396;10.064;2022-08-21T14:54:08;4.20;;;1.47;;
5393;SDS011;2720;52.396;10.064;2022-08-21T14:56:36;4.33;;;1.67;;
5393;SDS011;2720;52.396;10.064;2022-08-21T14:59:04;7.20;;;1.37;;
5393;SDS011;2720;52.396;10.064;2022-08-21T15:01:36;2.63;;;1.27;;
5393;SDS011;2720;52.396;10.064;2022-08-21T15:04:04;3.53;;;1.50;;
5393;SDS011;2720;52.396;10.064;2022-08-21T15:06:31;5.80;;;1.40;;
5393;SDS011;2720;52.396;10.064;2022-08-21T15:08:58;2.43;;;1.10;;
5393;SDS011;2720;52.396;10.064;2022-08-21T15:11:27;5.07;;;1.17;;
5393;SDS011;2720;52.396;10.064;2022-08-21T15:13:55;2.37;;;1.10;;
5393;SDS011;2720;52.396;10.064;2022-08-21T15:16:23;1.60;;;0.90;;
5393;SDS011;2720;52.396;10.064;2022-08-21T15:18:52;5.20;;;1.50;;